sensor_id;sensor_type;location;lat;lon;timestamp;P1;durP1;ratioP1;P2;durP2;ratioP2
54384;SDS011;40284;52.878;5.998;2023-09-07T00:01:18;4.68;;;3.42;;
54384;SDS011;40284;52.878;5.998;2023-09-07T00:03:44;7.32;;;3.40;;
54384;SDS011;40284;52.878;5.998;2023-09-07T00:06:10;8.07;;;3.50;;
54384;SDS011;40284;52.878;5.998;2023-09-07T00:08:36;7.00;;;4.15;;
54384;SDS011;40284;52.878;5.998;2023-09-07T00:11:06;7.45;;;3.28;;
54384;SDS011;40284;52.878;5.998;2023-09-07T00:13:32;7.28;;;3.08;;
54384;SDS011;40284;52.878;5.998;2023-09-07T00:16:02;6.53;;;3.33;;
54384;SDS011;40284;52.878;5.998;2023-09-07T00:18:29;7.00;;;3.25;;
54384;SDS011;40284;52.878;5.998;2023-09-07T00:20:55;5.10;;;3.28;;
54384;SDS011;40284;52.878;5.998;2023-09-07T00:23:21;5.55;;;3.33;;
54384;SDS011;40284;52.878;5.998;2023-09-07T00:25:47;5.03;;;3.70;;
54384;SDS011;40284;52.878;5.998;2023-09-07T00:28:14;5.47;;;3.60;;
54384;SDS011;40284;52.878;5.998;2023-09-07T00:30:40;6.60;;;3.65;;
54384;SDS011;40284;52.878;5.998;2023-09-07T00:33:07;10.45;;;3.50;;
54384;SDS011;40284;52.878;5.998;2023-09-07T00:35:32;6.28;;;3.17;;
54384;SDS011;40284;52.878;5.998;2023-09-07T00:37:59;7.05;;;3.55;;
54384;SDS011;40284;52.878;5.998;2023-09-07T00:40:25;6.95;;;3.30;;
54384;SDS011;40284;52.878;5.998;2023-09-07T00:42:52;6.55;;;3.60;;
54384;SDS011;40284;52.878;5.998;2023-09-07T00:45:18;6.30;;;3.70;;
54384;SDS011;40284;52.878;5.998;2023-09-07T00:47:44;4.13;;;3.30;;
54384;SDS011;40284;52.878;5.998;2023-09-07T00:50:11;6.43;;;3.20;;
54384;SDS011;40284;52.878;5.998;2023-09-07T00:52:39;8.02;;;3.75;;
54384;SDS011;40284;52.878;5.998;2023-09-07T00:55:08;6.90;;;3.53;;
54384;SDS011;40284;52.878;5.998;2023-09-07T00:57:35;6.18;;;3.67;;
54384;SDS011;40284;52.878;5.998;2023-09-07T01:00:02;5.07;;;4.03;;
54384;SDS011;40284;52.878;5.998;2023-09-07T01:02:29;6.53;;;3.30;;
54384;SDS011;40284;52.878;5.998;2023-09-07T01:04:55;6.80;;;3.47;;
54384;SDS011;40284;52.878;5.998;2023-09-07T01:07:21;6.38;;;3.90;;
54384;SDS011;40284;52.878;5.998;2023-09-07T01:09:51;4.72;;;3.60;;
54384;SDS011;40284;52.878;5.998;2023-09-07T01:12:18;5.35;;;3.35;;
54384;SDS011;40284;52.878;5.998;2023-09-07T01:14:45;7.50;;;3.67;;
54384;SDS011;40284;52.878;5.998;2023-09-07T01:17:11;7.53;;;3.90;;
54384;SDS011;40284;52.878;5.998;2023-09-07T01:19:38;5.25;;;3.83;;
54384;SDS011;40284;52.878;5.998;2023-09-07T01:22:08;7.53;;;3.72;;
54384;SDS011;40284;52.878;5.998;2023-09-07T01:24:35;5.32;;;3.53;;
54384;SDS011;40284;52.878;5.998;2023-09-07T01:27:03;7.82;;;3.72;;
54384;SDS011;40284;52.878;5.998;2023-09-07T01:29:29;4.80;;;3.80;;
54384;SDS011;40284;52.878;5.998;2023-09-07T01:31:56;8.65;;;3.70;;
54384;SDS011;40284;52.878;5.998;2023-09-07T01:34:22;9.65;;;3.55;;
54384;SDS011;40284;52.878;5.998;2023-09-07T01:36:49;6.53;;;3.65;;
54384;SDS011;40284;52.878;5.998;2023-09-07T01:39:15;5.45;;;3.60;;
54384;SDS011;40284;52.878;5.998;2023-09-07T01:41:42;6.75;;;4.18;;
54384;SDS011;40284;52.878;5.998;2023-09-07T01:44:08;13.25;;;4.38;;
54384;SDS011;40284;52.878;5.998;2023-09-07T01:46:34;4.18;;;3.10;;
54384;SDS011;40284;52.878;5.998;2023-09-07T01:49:03;5.82;;;3.67;;
54384;SDS011;40284;52.878;5.998;2023-09-07T01:51:29;4.40;;;3.72;;
54384;SDS011;40284;52.878;5.998;2023-09-07T01:53:55;5.03;;;3.85;;
54384;SDS011;40284;52.878;5.998;2023-09-07T01:56:21;5.85;;;4.07;;
54384;SDS011;40284;52.878;5.998;2023-09-07T01:58:47;4.43;;;3.42;;
54384;SDS011;40284;52.878;5.998;2023-09-07T02:01:24;6.53;;;3.80;;
54384;SDS011;40284;52.878;5.998;2023-09-07T02:03:50;7.38;;;4.10;;
54384;SDS011;40284;52.878;5.998;2023-09-07T02:06:16;8.50;;;4.00;;
54384;SDS011;40284;52.878;5.998;2023-09-07T02:08:43;7.38;;;4.80;;
54384;SDS011;40284;52.878;5.998;2023-09-07T02:11:09;6.90;;;4.13;;
54384;SDS011;40284;52.878;5.998;2023-09-07T02:13:35;7.28;;;4.00;;
54384;SDS011;40284;52.878;5.998;2023-09-07T02:16:04;6.97;;;4.03;;
54384;SDS011;40284;52.878;5.998;2023-09-07T02:18:33;8.73;;;4.00;;
54384;SDS011;40284;52.878;5.998;2023-09-07T02:21:03;5.80;;;4.22;;
54384;SDS011;40284;52.878;5.998;2023-09-07T02:23:30;5.85;;;4.68;;
54384;SDS011;40284;52.878;5.998;2023-09-07T02:25:56;6.78;;;4.78;;
54384;SDS011;40284;52.878;5.998;2023-09-07T02:28:23;5.47;;;4.60;;
54384;SDS011;40284;52.878;5.998;2023-09-07T02:30:49;9.73;;;4.70;;
54384;SDS011;40284;52.878;5.998;2023-09-07T02:33:15;5.97;;;4.63;;
54384;SDS011;40284;52.878;5.998;2023-09-07T02:35:41;6.30;;;4.57;;
54384;SDS011;40284;52.878;5.998;2023-09-07T02:38:07;5.07;;;4.38;;
54384;SDS011;40284;52.878;5.998;2023-09-07T02:40:39;5.55;;;4.35;;
54384;SDS011;40284;52.878;5.998;2023-09-07T02:43:05;5.18;;;4.63;;
54384;SDS011;40284;52.878;5.998;2023-09-07T02:45:31;7.90;;;4.65;;
54384;SDS011;40284;52.878;5.998;2023-09-07T02:47:57;8.68;;;4.22;;
54384;SDS011;40284;52.878;5.998;2023-09-07T02:50:24;7.60;;;4.60;;
54384;SDS011;40284;52.878;5.998;2023-09-07T02:52:50;5.53;;;4.25;;
54384;SDS011;40284;52.878;5.998;2023-09-07T02:55:16;6.65;;;4.63;;
54384;SDS011;40284;52.878;5.998;2023-09-07T02:57:42;7.68;;;5.07;;
54384;SDS011;40284;52.878;5.998;2023-09-07T03:00:08;7.80;;;4.82;;
54384;SDS011;40284;52.878;5.998;2023-09-07T03:02:34;5.25;;;4.45;;
54384;SDS011;40284;52.878;5.998;2023-09-07T03:05:03;11.68;;;6.00;;
54384;SDS011;40284;52.878;5.998;2023-09-07T03:07:32;8.02;;;5.05;;
54384;SDS011;40284;52.878;5.998;2023-09-07T03:09:58;4.80;;;4.25;;
54384;SDS011;40284;52.878;5.998;2023-09-07T03:12:24;6.32;;;4.43;;
54384;SDS011;40284;52.878;5.998;2023-09-07T03:14:50;7.93;;;4.35;;
54384;SDS011;40284;52.878;5.998;2023-09-07T03:17:17;6.30;;;4.50;;
54384;SDS011;40284;52.878;5.998;2023-09-07T03:19:43;5.32;;;4.22;;
54384;SDS011;40284;52.878;5.998;2023-09-07T03:22:09;6.95;;;4.85;;
54384;SDS011;40284;52.878;5.998;2023-09-07T03:24:35;11.50;;;5.35;;
54384;SDS011;40284;52.878;5.998;2023-09-07T03:27:02;6.88;;;4.68;;
54384;SDS011;40284;52.878;5.998;2023-09-07T03:29:29;6.65;;;4.90;;
54384;SDS011;40284;52.878;5.998;2023-09-07T03:31:55;8.40;;;5.60;;
54384;SDS011;40284;52.878;5.998;2023-09-07T03:34:21;6.15;;;4.97;;
54384;SDS011;40284;52.878;5.998;2023-09-07T03:36:47;10.85;;;5.25;;
54384;SDS011;40284;52.878;5.998;2023-09-07T03:39:13;7.53;;;5.18;;
54384;SDS011;40284;52.878;5.998;2023-09-07T03:41:39;6.57;;;5.28;;
54384;SDS011;40284;52.878;5.998;2023-09-07T03:44:05;7.32;;;5.22;;
54384;SDS011;40284;52.878;5.998;2023-09-07T03:46:32;6.57;;;4.90;;
54384;SDS011;40284;52.878;5.998;2023-09-07T03:48:58;6.97;;;5.40;;
54384;SDS011;40284;52.878;5.998;2023-09-07T03:51:24;7.75;;;5.20;;
54384;SDS011;40284;52.878;5.998;2023-09-07T03:53:50;8.95;;;4.80;;
54384;SDS011;40284;52.878;5.998;2023-09-07T03:56:16;9.10;;;5.15;;
54384;SDS011;40284;52.878;5.998;2023-09-07T03:58:42;5.72;;;4.72;;
54384;SDS011;40284;52.878;5.998;2023-09-07T04:01:09;12.25;;;5.15;;
54384;SDS011;40284;52.878;5.998;2023-09-07T04:03:35;8.23;;;5.40;;
54384;SDS011;40284;52.878;5.998;2023-09-07T04:06:01;7.13;;;5.10;;
54384;SDS011;40284;52.878;5.998;2023-09-07T04:08:27;7.18;;;4.88;;
54384;SDS011;40284;52.878;5.998;2023-09-07T04:10:53;6.22;;;5.38;;
54384;SDS011;40284;52.878;5.998;2023-09-07T04:13:20;5.32;;;4.40;;
54384;SDS011;40284;52.878;5.998;2023-09-07T04:15:46;9.02;;;5.05;;
54384;SDS011;40284;52.878;5.998;2023-09-07T04:18:12;9.00;;;4.80;;
54384;SDS011;40284;52.878;5.998;2023-09-07T04:20:40;6.85;;;4.68;;
54384;SDS011;40284;52.878;5.998;2023-09-07T04:23:06;5.63;;;4.72;;
54384;SDS011;40284;52.878;5.998;2023-09-07T04:25:32;9.73;;;5.30;;
54384;SDS011;40284;52.878;5.998;2023-09-07T04:27:58;6.20;;;4.88;;
54384;SDS011;40284;52.878;5.998;2023-09-07T04:30:25;6.63;;;4.93;;
54384;SDS011;40284;52.878;5.998;2023-09-07T04:32:51;8.40;;;5.45;;
54384;SDS011;40284;52.878;5.998;2023-09-07T04:35:17;6.40;;;5.53;;
54384;SDS011;40284;52.878;5.998;2023-09-07T04:37:44;7.43;;;4.90;;
54384;SDS011;40284;52.878;5.998;2023-09-07T04:40:10;7.40;;;5.20;;
54384;SDS011;40284;52.878;5.998;2023-09-07T04:42:37;10.07;;;5.65;;
54384;SDS011;40284;52.878;5.998;2023-09-07T04:45:04;9.57;;;6.25;;
54384;SDS011;40284;52.878;5.998;2023-09-07T04:47:30;7.63;;;5.20;;
54384;SDS011;40284;52.878;5.998;2023-09-07T04:49:57;6.38;;;5.10;;
54384;SDS011;40284;52.878;5.998;2023-09-07T04:52:24;7.95;;;5.03;;
54384;SDS011;40284;52.878;5.998;2023-09-07T04:54:50;6.53;;;5.45;;
54384;SDS011;40284;52.878;5.998;2023-09-07T04:57:16;9.05;;;5.78;;
54384;SDS011;40284;52.878;5.998;2023-09-07T04:59:43;7.03;;;5.70;;
54384;SDS011;40284;52.878;5.998;2023-09-07T05:02:09;7.15;;;5.80;;
54384;SDS011;40284;52.878;5.998;2023-09-07T05:04:37;7.95;;;5.82;;
54384;SDS011;40284;52.878;5.998;2023-09-07T05:07:03;5.97;;;5.22;;
54384;SDS011;40284;52.878;5.998;2023-09-07T05:09:29;8.77;;;6.10;;
54384;SDS011;40284;52.878;5.998;2023-09-07T05:11:56;7.63;;;6.18;;
54384;SDS011;40284;52.878;5.998;2023-09-07T05:14:25;7.18;;;6.35;;
54384;SDS011;40284;52.878;5.998;2023-09-07T05:16:51;6.72;;;6.00;;
54384;SDS011;40284;52.878;5.998;2023-09-07T05:19:18;8.13;;;5.72;;
54384;SDS011;40284;52.878;5.998;2023-09-07T05:21:44;16.67;;;6.45;;
54384;SDS011;40284;52.878;5.998;2023-09-07T05:24:12;9.73;;;5.88;;
54384;SDS011;40284;52.878;5.998;2023-09-07T05:26:39;8.63;;;5.85;;
54384;SDS011;40284;52.878;5.998;2023-09-07T05:29:05;7.25;;;5.82;;
54384;SDS011;40284;52.878;5.998;2023-09-07T05:31:31;7.05;;;6.18;;
54384;SDS011;40284;52.878;5.998;2023-09-07T05:33:57;11.07;;;6.03;;
54384;SDS011;40284;52.878;5.998;2023-09-07T05:36:23;14.07;;;6.57;;
54384;SDS011;40284;52.878;5.998;2023-09-07T05:38:49;8.52;;;6.25;;
54384;SDS011;40284;52.878;5.998;2023-09-07T05:41:15;10.27;;;6.20;;
54384;SDS011;40284;52.878;5.998;2023-09-07T05:43:41;9.20;;;6.20;;
54384;SDS011;40284;52.878;5.998;2023-09-07T05:46:07;8.35;;;6.43;;
54384;SDS011;40284;52.878;5.998;2023-09-07T05:48:33;14.75;;;6.50;;
54384;SDS011;40284;52.878;5.998;2023-09-07T05:50:59;10.07;;;6.55;;
54384;SDS011;40284;52.878;5.998;2023-09-07T05:53:25;8.73;;;6.00;;
54384;SDS011;40284;52.878;5.998;2023-09-07T05:55:52;7.82;;;6.10;;
54384;SDS011;40284;52.878;5.998;2023-09-07T05:58:18;10.85;;;6.28;;
54384;SDS011;40284;52.878;5.998;2023-09-07T06:00:44;10.63;;;6.35;;
54384;SDS011;40284;52.878;5.998;2023-09-07T06:03:10;7.05;;;6.28;;
54384;SDS011;40284;52.878;5.998;2023-09-07T06:05:37;9.30;;;6.47;;
54384;SDS011;40284;52.878;5.998;2023-09-07T06:08:04;9.82;;;6.80;;
54384;SDS011;40284;52.878;5.998;2023-09-07T06:10:31;10.20;;;7.03;;
54384;SDS011;40284;52.878;5.998;2023-09-07T06:12:57;16.23;;;6.63;;
54384;SDS011;40284;52.878;5.998;2023-09-07T06:15:23;9.25;;;6.35;;
54384;SDS011;40284;52.878;5.998;2023-09-07T06:17:49;7.65;;;6.07;;
54384;SDS011;40284;52.878;5.998;2023-09-07T06:20:16;9.52;;;6.50;;
54384;SDS011;40284;52.878;5.998;2023-09-07T06:22:44;8.95;;;5.90;;
54384;SDS011;40284;52.878;5.998;2023-09-07T06:25:10;7.50;;;5.93;;
54384;SDS011;40284;52.878;5.998;2023-09-07T06:27:36;9.63;;;6.50;;
54384;SDS011;40284;52.878;5.998;2023-09-07T06:30:03;6.78;;;6.07;;
54384;SDS011;40284;52.878;5.998;2023-09-07T06:32:30;6.93;;;6.10;;
54384;SDS011;40284;52.878;5.998;2023-09-07T06:34:56;8.57;;;6.13;;
54384;SDS011;40284;52.878;5.998;2023-09-07T06:37:22;9.90;;;6.03;;
54384;SDS011;40284;52.878;5.998;2023-09-07T06:39:49;8.00;;;6.13;;
54384;SDS011;40284;52.878;5.998;2023-09-07T06:42:16;7.60;;;6.25;;
54384;SDS011;40284;52.878;5.998;2023-09-07T06:44:42;7.78;;;6.80;;
54384;SDS011;40284;52.878;5.998;2023-09-07T06:47:08;9.00;;;6.10;;
54384;SDS011;40284;52.878;5.998;2023-09-07T06:49:34;9.95;;;6.78;;
54384;SDS011;40284;52.878;5.998;2023-09-07T06:52:02;12.60;;;6.28;;
54384;SDS011;40284;52.878;5.998;2023-09-07T06:54:28;9.73;;;6.30;;
54384;SDS011;40284;52.878;5.998;2023-09-07T06:56:54;8.27;;;6.32;;
54384;SDS011;40284;52.878;5.998;2023-09-07T06:59:20;9.38;;;6.47;;
54384;SDS011;40284;52.878;5.998;2023-09-07T07:01:46;7.00;;;6.20;;
54384;SDS011;40284;52.878;5.998;2023-09-07T07:04:12;7.05;;;6.15;;
54384;SDS011;40284;52.878;5.998;2023-09-07T07:06:39;12.25;;;6.30;;
54384;SDS011;40284;52.878;5.998;2023-09-07T07:09:05;8.93;;;5.78;;
54384;SDS011;40284;52.878;5.998;2023-09-07T07:11:31;11.90;;;6.18;;
54384;SDS011;40284;52.878;5.998;2023-09-07T07:13:57;10.95;;;6.20;;
54384;SDS011;40284;52.878;5.998;2023-09-07T07:16:23;8.02;;;6.13;;
54384;SDS011;40284;52.878;5.998;2023-09-07T07:18:49;7.60;;;6.00;;
54384;SDS011;40284;52.878;5.998;2023-09-07T07:21:15;8.07;;;5.65;;
54384;SDS011;40284;52.878;5.998;2023-09-07T07:23:41;6.18;;;5.50;;
54384;SDS011;40284;52.878;5.998;2023-09-07T07:26:07;9.45;;;6.20;;
54384;SDS011;40284;52.878;5.998;2023-09-07T07:28:34;11.25;;;6.28;;
54384;SDS011;40284;52.878;5.998;2023-09-07T07:31:06;12.00;;;5.13;;
54384;SDS011;40284;52.878;5.998;2023-09-07T07:33:33;7.68;;;5.70;;
54384;SDS011;40284;52.878;5.998;2023-09-07T07:35:59;13.70;;;5.95;;
54384;SDS011;40284;52.878;5.998;2023-09-07T07:38:25;6.65;;;5.43;;
54384;SDS011;40284;52.878;5.998;2023-09-07T07:40:51;10.77;;;5.53;;
54384;SDS011;40284;52.878;5.998;2023-09-07T07:43:18;9.60;;;5.55;;
54384;SDS011;40284;52.878;5.998;2023-09-07T07:45:44;8.88;;;6.25;;
54384;SDS011;40284;52.878;5.998;2023-09-07T07:48:10;7.35;;;5.43;;
54384;SDS011;40284;52.878;5.998;2023-09-07T07:50:37;9.63;;;5.03;;
54384;SDS011;40284;52.878;5.998;2023-09-07T07:53:04;7.68;;;5.00;;
54384;SDS011;40284;52.878;5.998;2023-09-07T07:55:34;5.97;;;5.38;;
54384;SDS011;40284;52.878;5.998;2023-09-07T07:58:04;14.73;;;5.87;;
54384;SDS011;40284;52.878;5.998;2023-09-07T08:00:32;10.73;;;5.28;;
54384;SDS011;40284;52.878;5.998;2023-09-07T08:02:59;9.15;;;5.07;;
54384;SDS011;40284;52.878;5.998;2023-09-07T08:05:27;6.60;;;5.10;;
54384;SDS011;40284;52.878;5.998;2023-09-07T08:07:53;8.00;;;4.80;;
54384;SDS011;40284;52.878;5.998;2023-09-07T08:10:19;8.80;;;5.15;;
54384;SDS011;40284;52.878;5.998;2023-09-07T08:12:45;9.88;;;5.15;;
54384;SDS011;40284;52.878;5.998;2023-09-07T08:15:11;9.02;;;5.07;;
54384;SDS011;40284;52.878;5.998;2023-09-07T08:17:37;6.90;;;4.40;;
54384;SDS011;40284;52.878;5.998;2023-09-07T08:20:03;8.57;;;5.07;;
54384;SDS011;40284;52.878;5.998;2023-09-07T08:22:30;6.97;;;5.03;;
54384;SDS011;40284;52.878;5.998;2023-09-07T08:25:00;6.82;;;5.28;;
54384;SDS011;40284;52.878;5.998;2023-09-07T08:27:26;9.18;;;5.28;;
54384;SDS011;40284;52.878;5.998;2023-09-07T08:29:52;11.73;;;4.60;;
54384;SDS011;40284;52.878;5.998;2023-09-07T08:32:19;12.07;;;4.95;;
54384;SDS011;40284;52.878;5.998;2023-09-07T08:34:46;6.65;;;4.50;;
54384;SDS011;40284;52.878;5.998;2023-09-07T08:37:12;7.18;;;4.80;;
54384;SDS011;40284;52.878;5.998;2023-09-07T08:39:38;6.70;;;4.90;;
54384;SDS011;40284;52.878;5.998;2023-09-07T08:42:04;5.72;;;4.60;;
54384;SDS011;40284;52.878;5.998;2023-09-07T08:44:30;8.73;;;5.10;;
54384;SDS011;40284;52.878;5.998;2023-09-07T08:46:59;7.03;;;4.55;;
54384;SDS011;40284;52.878;5.998;2023-09-07T08:49:25;7.88;;;4.97;;
54384;SDS011;40284;52.878;5.998;2023-09-07T08:51:51;5.93;;;4.28;;
54384;SDS011;40284;52.878;5.998;2023-09-07T08:54:19;10.25;;;4.35;;
54384;SDS011;40284;52.878;5.998;2023-09-07T08:56:46;10.27;;;4.55;;
54384;SDS011;40284;52.878;5.998;2023-09-07T08:59:12;6.57;;;4.07;;
54384;SDS011;40284;52.878;5.998;2023-09-07T09:01:39;7.50;;;4.68;;
54384;SDS011;40284;52.878;5.998;2023-09-07T09:04:05;6.10;;;4.10;;
54384;SDS011;40284;52.878;5.998;2023-09-07T09:06:31;9.15;;;4.68;;
54384;SDS011;40284;52.878;5.998;2023-09-07T09:08:57;8.63;;;4.38;;
54384;SDS011;40284;52.878;5.998;2023-09-07T09:11:24;15.82;;;4.63;;
54384;SDS011;40284;52.878;5.998;2023-09-07T09:13:51;6.85;;;4.00;;
54384;SDS011;40284;52.878;5.998;2023-09-07T09:16:18;5.40;;;4.10;;
54384;SDS011;40284;52.878;5.998;2023-09-07T09:19:17;6.72;;;5.35;;
54384;SDS011;40284;52.878;5.998;2023-09-07T09:21:36;6.63;;;4.25;;
54384;SDS011;40284;52.878;5.998;2023-09-07T09:24:03;5.53;;;4.30;;
54384;SDS011;40284;52.878;5.998;2023-09-07T09:26:36;11.52;;;4.50;;
54384;SDS011;40284;52.878;5.998;2023-09-07T09:29:03;7.00;;;4.15;;
54384;SDS011;40284;52.878;5.998;2023-09-07T09:31:29;7.00;;;4.22;;
54384;SDS011;40284;52.878;5.998;2023-09-07T09:33:55;7.25;;;3.83;;
54384;SDS011;40284;52.878;5.998;2023-09-07T09:36:22;7.47;;;4.00;;
54384;SDS011;40284;52.878;5.998;2023-09-07T09:38:48;8.05;;;4.22;;
54384;SDS011;40284;52.878;5.998;2023-09-07T09:41:17;7.50;;;3.95;;
54384;SDS011;40284;52.878;5.998;2023-09-07T09:43:45;11.75;;;3.70;;
54384;SDS011;40284;52.878;5.998;2023-09-07T09:46:14;9.45;;;4.18;;
54384;SDS011;40284;52.878;5.998;2023-09-07T09:48:41;6.85;;;4.10;;
54384;SDS011;40284;52.878;5.998;2023-09-07T09:51:08;7.43;;;3.95;;
54384;SDS011;40284;52.878;5.998;2023-09-07T09:53:36;6.22;;;4.30;;
54384;SDS011;40284;52.878;5.998;2023-09-07T09:56:02;6.35;;;3.80;;
54384;SDS011;40284;52.878;5.998;2023-09-07T09:58:28;5.65;;;4.15;;
54384;SDS011;40284;52.878;5.998;2023-09-07T10:00:55;9.63;;;4.10;;
54384;SDS011;40284;52.878;5.998;2023-09-07T10:03:29;8.15;;;4.30;;
54384;SDS011;40284;52.878;5.998;2023-09-07T10:06:09;5.97;;;3.95;;
54384;SDS011;40284;52.878;5.998;2023-09-07T10:08:36;8.23;;;4.30;;
54384;SDS011;40284;52.878;5.998;2023-09-07T10:11:07;10.35;;;4.10;;
54384;SDS011;40284;52.878;5.998;2023-09-07T10:13:34;4.82;;;3.90;;
54384;SDS011;40284;52.878;5.998;2023-09-07T10:16:04;5.15;;;4.05;;
54384;SDS011;40284;52.878;5.998;2023-09-07T10:18:34;11.25;;;4.18;;
54384;SDS011;40284;52.878;5.998;2023-09-07T10:21:01;4.57;;;3.92;;
54384;SDS011;40284;52.878;5.998;2023-09-07T10:23:43;7.70;;;3.58;;
54384;SDS011;40284;52.878;5.998;2023-09-07T10:26:11;8.60;;;4.07;;
54384;SDS011;40284;52.878;5.998;2023-09-07T10:28:37;7.20;;;4.57;;
54384;SDS011;40284;52.878;5.998;2023-09-07T10:31:13;4.88;;;3.53;;
54384;SDS011;40284;52.878;5.998;2023-09-07T10:33:40;6.97;;;4.53;;
54384;SDS011;40284;52.878;5.998;2023-09-07T10:36:06;8.23;;;4.55;;
54384;SDS011;40284;52.878;5.998;2023-09-07T10:38:32;5.45;;;3.70;;
54384;SDS011;40284;52.878;5.998;2023-09-07T10:41:00;5.97;;;4.40;;
54384;SDS011;40284;52.878;5.998;2023-09-07T10:43:29;7.28;;;4.13;;
54384;SDS011;40284;52.878;5.998;2023-09-07T10:45:56;7.63;;;4.35;;
54384;SDS011;40284;52.878;5.998;2023-09-07T10:48:23;8.07;;;3.92;;
54384;SDS011;40284;52.878;5.998;2023-09-07T10:50:54;8.70;;;3.90;;
54384;SDS011;40284;52.878;5.998;2023-09-07T10:55:56;5.90;;;3.78;;
54384;SDS011;40284;52.878;5.998;2023-09-07T10:58:25;5.97;;;3.38;;
54384;SDS011;40284;52.878;5.998;2023-09-07T11:00:53;6.32;;;4.03;;
54384;SDS011;40284;52.878;5.998;2023-09-07T11:03:19;8.65;;;3.45;;
54384;SDS011;40284;52.878;5.998;2023-09-07T11:05:45;8.63;;;4.30;;
54384;SDS011;40284;52.878;5.998;2023-09-07T11:08:12;9.38;;;4.30;;
54384;SDS011;40284;52.878;5.998;2023-09-07T11:10:38;6.75;;;4.18;;
54384;SDS011;40284;52.878;5.998;2023-09-07T11:13:04;7.35;;;3.95;;
54384;SDS011;40284;52.878;5.998;2023-09-07T11:15:31;5.90;;;4.30;;
54384;SDS011;40284;52.878;5.998;2023-09-07T11:17:58;10.02;;;3.83;;
54384;SDS011;40284;52.878;5.998;2023-09-07T11:20:24;6.47;;;4.25;;
54384;SDS011;40284;52.878;5.998;2023-09-07T11:22:51;4.13;;;3.38;;
54384;SDS011;40284;52.878;5.998;2023-09-07T11:25:17;6.03;;;4.35;;
54384;SDS011;40284;52.878;5.998;2023-09-07T11:27:43;5.40;;;3.70;;
54384;SDS011;40284;52.878;5.998;2023-09-07T11:30:10;8.15;;;4.03;;
54384;SDS011;40284;52.878;5.998;2023-09-07T11:32:36;8.35;;;4.50;;
54384;SDS011;40284;52.878;5.998;2023-09-07T11:35:03;4.93;;;4.03;;
54384;SDS011;40284;52.878;5.998;2023-09-07T11:37:33;8.77;;;3.75;;
54384;SDS011;40284;52.878;5.998;2023-09-07T11:40:00;6.47;;;3.80;;
54384;SDS011;40284;52.878;5.998;2023-09-07T11:42:26;10.10;;;4.35;;
54384;SDS011;40284;52.878;5.998;2023-09-07T11:44:52;8.98;;;4.18;;
54384;SDS011;40284;52.878;5.998;2023-09-07T11:47:18;11.13;;;3.90;;
54384;SDS011;40284;52.878;5.998;2023-09-07T11:49:44;5.53;;;3.47;;
54384;SDS011;40284;52.878;5.998;2023-09-07T11:52:10;5.72;;;3.15;;
54384;SDS011;40284;52.878;5.998;2023-09-07T11:54:36;8.27;;;3.60;;
54384;SDS011;40284;52.878;5.998;2023-09-07T11:57:03;10.88;;;3.67;;
54384;SDS011;40284;52.878;5.998;2023-09-07T11:59:29;5.25;;;3.63;;
54384;SDS011;40284;52.878;5.998;2023-09-07T12:01:55;5.05;;;3.40;;
54384;SDS011;40284;52.878;5.998;2023-09-07T12:04:21;4.63;;;3.42;;
54384;SDS011;40284;52.878;5.998;2023-09-07T12:06:48;6.50;;;3.75;;
54384;SDS011;40284;52.878;5.998;2023-09-07T12:09:14;5.00;;;3.47;;
54384;SDS011;40284;52.878;5.998;2023-09-07T12:11:42;4.82;;;3.67;;
54384;SDS011;40284;52.878;5.998;2023-09-07T12:14:09;8.10;;;3.72;;
54384;SDS011;40284;52.878;5.998;2023-09-07T12:16:35;6.40;;;3.75;;
54384;SDS011;40284;52.878;5.998;2023-09-07T12:19:01;5.35;;;3.80;;
54384;SDS011;40284;52.878;5.998;2023-09-07T12:21:27;6.75;;;3.80;;
54384;SDS011;40284;52.878;5.998;2023-09-07T12:23:53;5.35;;;3.22;;
54384;SDS011;40284;52.878;5.998;2023-09-07T12:26:19;4.82;;;3.28;;
54384;SDS011;40284;52.878;5.998;2023-09-07T12:28:46;5.10;;;3.75;;
54384;SDS011;40284;52.878;5.998;2023-09-07T12:31:12;6.95;;;3.60;;
54384;SDS011;40284;52.878;5.998;2023-09-07T12:33:39;5.93;;;3.10;;
54384;SDS011;40284;52.878;5.998;2023-09-07T12:36:05;6.90;;;3.28;;
54384;SDS011;40284;52.878;5.998;2023-09-07T12:38:34;5.28;;;3.10;;
54384;SDS011;40284;52.878;5.998;2023-09-07T12:41:00;5.57;;;2.97;;
54384;SDS011;40284;52.878;5.998;2023-09-07T12:43:26;5.55;;;3.75;;
54384;SDS011;40284;52.878;5.998;2023-09-07T12:45:52;7.03;;;3.25;;
54384;SDS011;40284;52.878;5.998;2023-09-07T12:48:19;9.23;;;3.25;;
54384;SDS011;40284;52.878;5.998;2023-09-07T12:50:45;4.57;;;3.40;;
54384;SDS011;40284;52.878;5.998;2023-09-07T12:53:11;6.60;;;3.50;;
54384;SDS011;40284;52.878;5.998;2023-09-07T12:55:37;4.15;;;3.35;;
54384;SDS011;40284;52.878;5.998;2023-09-07T12:58:03;5.57;;;3.30;;
54384;SDS011;40284;52.878;5.998;2023-09-07T13:00:29;7.32;;;4.00;;
54384;SDS011;40284;52.878;5.998;2023-09-07T13:02:55;4.72;;;3.20;;
54384;SDS011;40284;52.878;5.998;2023-09-07T13:05:21;4.15;;;3.08;;
54384;SDS011;40284;52.878;5.998;2023-09-07T13:07:47;6.07;;;3.50;;
54384;SDS011;40284;52.878;5.998;2023-09-07T13:10:13;7.88;;;3.95;;
54384;SDS011;40284;52.878;5.998;2023-09-07T13:12:40;6.13;;;3.58;;
54384;SDS011;40284;52.878;5.998;2023-09-07T13:15:06;6.70;;;3.83;;
54384;SDS011;40284;52.878;5.998;2023-09-07T13:17:32;5.63;;;3.20;;
54384;SDS011;40284;52.878;5.998;2023-09-07T13:19:58;7.68;;;3.70;;
54384;SDS011;40284;52.878;5.998;2023-09-07T13:22:25;4.18;;;2.90;;
54384;SDS011;40284;52.878;5.998;2023-09-07T13:24:51;4.53;;;3.65;;
54384;SDS011;40284;52.878;5.998;2023-09-07T13:27:17;6.45;;;3.17;;
54384;SDS011;40284;52.878;5.998;2023-09-07T13:29:43;7.80;;;3.47;;
54384;SDS011;40284;52.878;5.998;2023-09-07T13:32:09;6.57;;;3.25;;
54384;SDS011;40284;52.878;5.998;2023-09-07T13:34:35;9.13;;;3.78;;
54384;SDS011;40284;52.878;5.998;2023-09-07T13:37:01;5.95;;;3.55;;
54384;SDS011;40284;52.878;5.998;2023-09-07T13:39:27;8.50;;;3.40;;
54384;SDS011;40284;52.878;5.998;2023-09-07T13:41:53;4.10;;;3.20;;
54384;SDS011;40284;52.878;5.998;2023-09-07T13:44:19;5.43;;;3.28;;
54384;SDS011;40284;52.878;5.998;2023-09-07T13:46:45;5.40;;;3.40;;
54384;SDS011;40284;52.878;5.998;2023-09-07T13:49:12;11.63;;;5.90;;
54384;SDS011;40284;52.878;5.998;2023-09-07T13:51:39;6.35;;;3.35;;
54384;SDS011;40284;52.878;5.998;2023-09-07T13:54:06;5.28;;;3.17;;
54384;SDS011;40284;52.878;5.998;2023-09-07T13:56:32;5.38;;;3.72;;
54384;SDS011;40284;52.878;5.998;2023-09-07T13:58:59;6.97;;;3.67;;
54384;SDS011;40284;52.878;5.998;2023-09-07T14:01:25;5.90;;;3.60;;
54384;SDS011;40284;52.878;5.998;2023-09-07T14:03:52;7.97;;;3.97;;
54384;SDS011;40284;52.878;5.998;2023-09-07T14:06:18;11.15;;;4.00;;
54384;SDS011;40284;52.878;5.998;2023-09-07T14:08:45;7.03;;;3.90;;
54384;SDS011;40284;52.878;5.998;2023-09-07T14:11:13;4.28;;;3.70;;
54384;SDS011;40284;52.878;5.998;2023-09-07T14:13:39;5.88;;;4.05;;
54384;SDS011;40284;52.878;5.998;2023-09-07T14:16:05;10.80;;;3.55;;
54384;SDS011;40284;52.878;5.998;2023-09-07T14:18:32;9.77;;;3.55;;
54384;SDS011;40284;52.878;5.998;2023-09-07T14:20:58;7.32;;;3.58;;
54384;SDS011;40284;52.878;5.998;2023-09-07T14:23:26;6.30;;;3.90;;
54384;SDS011;40284;52.878;5.998;2023-09-07T14:25:52;6.25;;;3.42;;
54384;SDS011;40284;52.878;5.998;2023-09-07T14:28:19;9.88;;;3.58;;
54384;SDS011;40284;52.878;5.998;2023-09-07T14:30:44;4.53;;;3.05;;
54384;SDS011;40284;52.878;5.998;2023-09-07T14:33:10;7.82;;;3.80;;
54384;SDS011;40284;52.878;5.998;2023-09-07T14:35:37;6.97;;;3.10;;
54384;SDS011;40284;52.878;5.998;2023-09-07T14:38:03;6.78;;;3.22;;
54384;SDS011;40284;52.878;5.998;2023-09-07T14:40:29;6.85;;;3.53;;
54384;SDS011;40284;52.878;5.998;2023-09-07T14:42:55;5.47;;;3.67;;
54384;SDS011;40284;52.878;5.998;2023-09-07T14:45:24;4.95;;;3.10;;